Time;durP1;ratioP1;P1;durP2;ratioP2;P2;SDS_P1;SDS_P2;PMS_P1;PMS_P2;Temp;Humidity;BMP_temperature;BMP_pressure;BME280_temperature;BME280_humidity;BME280_pressure;Samples;Min_cycle;Max_cycle;Signal;HPM_P1;HPM_P2
2023/08/07 00:01:12;;;;;;;364.15;283.33;;;27.40;99.90;;;;;;5052968;28;20455;-67
2023/08/07 00:03:39;;;;;;;172.82;152.55;;;27.50;99.90;;;;;;5053010;28;20024;-67
2023/08/07 00:06:05;;;;;;;154.10;133.25;;;27.50;99.90;;;;;;5052852;28;20467;-68
2023/08/07 00:08:33;;;;;;;199.90;179.50;;;27.60;99.90;;;;;;5052871;28;20541;-68
2023/08/07 00:11:19;;;;;;;184.88;166.18;;;27.70;99.90;;;;;;5052751;28;20387;-67
2023/08/07 00:13:45;;;;;;;144.68;129.55;;;27.70;99.90;;;;;;5052715;28;20033;-67
2023/08/07 00:16:12;;;;;;;119.93;105.88;;;27.70;99.90;;;;;;5052934;28;20024;-67
2023/08/07 00:18:38;;;;;;;114.50;98.90;;;27.80;99.90;;;;;;5052908;28;20017;-68
2023/08/07 00:21:05;;;;;;;126.15;112.55;;;27.80;99.90;;;;;;5052675;28;20429;-68
2023/08/07 00:23:31;;;;;;;96.40;72.75;;;27.90;99.90;;;;;;5052667;28;20017;-67
2023/08/07 00:25:58;;;;;;;118.90;106.07;;;28.00;99.90;;;;;;5052808;28;20066;-68
2023/08/07 00:28:24;;;;;;;118.45;101.15;;;28.00;99.90;;;;;;5052471;28;20472;-68
2023/08/07 00:30:51;;;;;;;129.45;106.63;;;28.10;99.90;;;;;;5052704;28;20368;-68
2023/08/07 00:33:17;;;;;;;115.72;102.50;;;28.00;99.90;;;;;;5052723;28;20017;-67
2023/08/07 00:35:44;;;;;;;85.53;59.75;;;28.10;99.90;;;;;;5052536;28;20548;-67
2023/08/07 00:38:11;;;;;;;93.10;65.13;;;28.20;99.90;;;;;;5052594;28;20041;-67
2023/08/07 00:40:39;;;;;;;92.30;72.28;;;28.20;99.90;;;;;;5052646;28;20044;-67
2023/08/07 00:43:06;;;;;;;104.93;86.70;;;28.30;99.90;;;;;;5052344;28;20029;-65
2023/08/07 00:45:37;;;;;;;168.50;150.82;;;28.30;99.90;;;;;;5052438;28;20033;-67
2023/08/07 00:48:05;;;;;;;81.80;57.72;;;28.30;99.90;;;;;;5052829;28;20021;-68
2023/08/07 00:50:31;;;;;;;97.88;67.95;;;28.40;99.90;;;;;;5052585;28;20434;-65
2023/08/07 00:52:58;;;;;;;99.50;73.60;;;28.40;99.90;;;;;;5053573;28;20021;-67
2023/08/07 00:55:25;;;;;;;102.28;80.63;;;28.50;99.90;;;;;;5056039;28;20530;-69
2023/08/07 00:57:51;;;;;;;246.13;222.35;;;28.50;99.90;;;;;;5055810;28;20048;-68
2023/08/07 01:00:20;;;;;;;701.03;631.50;;;28.50;99.90;;;;;;5055933;28;20101;-69
2023/08/07 01:02:50;;;;;;;359.77;324.83;;;28.60;99.90;;;;;;5064486;28;20366;-67
2023/08/07 01:05:19;;;;;;;661.33;597.25;;;28.70;99.90;;;;;;5075696;28;20024;-67
2023/08/07 01:07:47;;;;;;;573.55;516.30;;;28.70;99.90;;;;;;5075827;28;20043;-68
2023/08/07 01:10:15;;;;;;;188.77;169.05;;;28.80;99.90;;;;;;5075709;28;20028;-68
2023/08/07 01:12:50;;;;;;;284.30;256.63;;;28.80;99.90;;;;;;5075566;28;20021;-67
2023/08/07 01:15:22;;;;;;;804.28;725.53;;;28.80;99.90;;;;;;5075664;28;20021;-68
2023/08/07 01:17:52;;;;;;;1007.08;909.00;;;28.90;99.90;;;;;;5075538;28;20021;-70
2023/08/07 01:20:19;;;;;;;876.00;789.35;;;29.00;99.90;;;;;;5075563;28;20028;-68
2023/08/07 01:22:45;;;;;;;1204.35;999.90;;;29.00;99.90;;;;;;5075548;28;20040;-68
2023/08/07 01:25:12;;;;;;;1236.75;999.90;;;29.10;99.90;;;;;;5075308;28;20028;-69
2023/08/07 01:27:56;;;;;;;721.50;644.85;;;29.10;99.90;;;;;;5070746;28;20071;-67
2023/08/07 01:30:36;;;;;;;979.35;878.17;;;29.20;99.90;;;;;;5054408;28;20033;-67
2023/08/07 01:33:04;;;;;;;593.03;532.17;;;29.30;99.90;;;;;;5055446;28;20092;-68
2023/08/07 01:35:39;;;;;;;907.72;816.63;;;29.30;99.90;;;;;;5055292;28;20032;-68
2023/08/07 01:38:07;;;;;;;717.75;646.97;;;29.30;99.90;;;;;;5055168;28;20483;-67
2023/08/07 01:40:35;;;;;;;324.40;291.60;;;29.40;99.90;;;;;;5055340;28;20037;-67
2023/08/07 01:43:01;;;;;;;219.95;198.00;;;29.40;99.90;;;;;;5055013;28;20460;-67
2023/08/07 01:45:29;;;;;;;128.63;116.50;;;29.40;99.90;;;;;;5052214;28;20479;-67
2023/08/07 01:47:56;;;;;;;72.30;64.63;;;29.50;99.90;;;;;;5035112;28;20025;-67
2023/08/07 01:50:24;;;;;;;57.58;38.97;;;29.50;99.90;;;;;;5034963;28;20105;-66
2023/08/07 01:52:50;;;;;;;50.40;34.83;;;29.60;99.90;;;;;;5035078;28;20365;-67
2023/08/07 01:55:18;;;;;;;53.95;37.08;;;29.60;99.90;;;;;;5035030;28;20049;-67
2023/08/07 01:57:45;;;;;;;55.08;36.42;;;29.60;99.90;;;;;;5093322;22;20515;-66
2023/08/07 02:00:12;;;;;;;111.20;100.45;;;29.60;99.90;;;;;;5074934;28;20013;-66
2023/08/07 02:02:38;;;;;;;224.80;203.13;;;29.70;99.90;;;;;;5075004;28;20383;-66
2023/08/07 02:05:05;;;;;;;347.80;314.05;;;29.70;99.90;;;;;;5074586;28;20012;-66
2023/08/07 02:07:32;;;;;;;504.83;452.65;;;29.80;99.90;;;;;;5075120;28;20024;-66
2023/08/07 02:09:58;;;;;;;550.40;494.75;;;29.80;99.90;;;;;;5074609;28;20046;-66
2023/08/07 02:12:26;;;;;;;44.53;32.53;;;29.90;99.90;;;;;;5074443;28;20012;-66
2023/08/07 02:14:52;;;;;;;444.58;399.15;;;30.00;99.90;;;;;;5074488;28;20487;-66
2023/08/07 02:17:22;;;;;;;50.13;35.83;;;30.00;99.90;;;;;;5074573;28;20028;-66
2023/08/07 02:19:49;;;;;;;45.97;34.10;;;30.00;99.90;;;;;;5074151;28;20096;-66
2023/08/07 02:22:15;;;;;;;203.88;183.18;;;30.00;99.90;;;;;;5074499;28;20497;-65
2023/08/07 02:24:42;;;;;;;68.80;46.92;;;30.00;99.90;;;;;;5074389;28;20441;-66
2023/08/07 02:27:08;;;;;;;44.55;32.33;;;29.90;99.90;;;;;;5074193;28;20029;-66
2023/08/07 02:29:35;;;;;;;40.70;26.73;;;30.00;99.90;;;;;;5063829;28;20021;-66
2023/08/07 02:32:03;;;;;;;39.08;29.02;;;30.10;99.90;;;;;;5054201;28;20065;-65
2023/08/07 02:34:31;;;;;;;43.30;35.17;;;30.10;99.90;;;;;;5053940;28;20049;-66
2023/08/07 02:36:57;;;;;;;40.08;26.40;;;30.20;99.90;;;;;;5054312;28;20061;-65
2023/08/07 02:39:24;;;;;;;95.78;85.95;;;30.30;99.90;;;;;;5054100;28;20032;-65
2023/08/07 02:41:51;;;;;;;39.10;25.80;;;30.30;99.90;;;;;;5053993;28;20021;-65
2023/08/07 02:44:19;;;;;;;113.97;102.22;;;30.40;99.90;;;;;;5054137;28;20169;-66
2023/08/07 02:46:46;;;;;;;176.45;158.25;;;30.40;99.90;;;;;;5053818;28;20078;-65
2023/08/07 02:49:13;;;;;;;37.90;24.45;;;30.50;99.90;;;;;;5054084;28;20021;-66
2023/08/07 02:51:39;;;;;;;33.47;23.83;;;30.60;99.90;;;;;;5053886;28;20071;-66
2023/08/07 02:54:06;;;;;;;35.53;24.70;;;30.70;99.90;;;;;;5053441;28;20049;-66
2023/08/07 02:56:32;;;;;;;33.22;23.63;;;30.70;99.90;;;;;;5053686;28;20471;-67
2023/08/07 02:59:01;;;;;;;33.83;21.67;;;30.80;99.90;;;;;;5054005;28;20032;-65
2023/08/07 03:01:28;;;;;;;34.40;23.13;;;30.80;99.90;;;;;;5054037;28;20116;-66
2023/08/07 03:03:54;;;;;;;37.75;22.08;;;30.90;99.90;;;;;;5054101;28;20463;-67
2023/08/07 03:06:21;;;;;;;33.33;21.17;;;30.90;99.90;;;;;;5053494;28;20052;-66
2023/08/07 03:08:47;;;;;;;32.15;20.92;;;30.90;99.90;;;;;;5053505;28;20023;-66
2023/08/07 03:11:14;;;;;;;52.10;37.92;;;31.00;99.90;;;;;;5053495;28;20531;-65
2023/08/07 03:13:41;;;;;;;41.80;24.15;;;31.10;99.90;;;;;;5053369;28;20026;-65
2023/08/07 03:16:08;;;;;;;43.33;27.02;;;31.10;99.90;;;;;;5052954;28;20021;-65
2023/08/07 03:18:35;;;;;;;39.92;30.05;;;31.20;99.90;;;;;;5053533;28;20021;-66
2023/08/07 03:21:01;;;;;;;36.22;24.40;;;31.20;99.90;;;;;;5053174;28;20040;-66
2023/08/07 03:23:28;;;;;;;41.63;26.88;;;31.20;99.90;;;;;;5053370;28;20031;-66
2023/08/07 03:26:15;;;;;;;44.03;26.55;;;31.20;99.90;;;;;;5053310;28;20035;-66
2023/08/07 03:28:41;;;;;;;40.33;24.15;;;31.30;99.90;;;;;;5053396;28;20035;-65
2023/08/07 03:31:08;;;;;;;41.30;27.83;;;31.30;99.90;;;;;;5053181;28;20033;-65
2023/08/07 03:33:34;;;;;;;93.43;80.10;;;31.30;99.90;;;;;;5053044;28;20021;-66
2023/08/07 03:36:01;;;;;;;70.28;62.95;;;31.40;99.90;;;;;;5053353;28;20048;-65
2023/08/07 03:38:27;;;;;;;75.65;57.55;;;31.40;99.90;;;;;;5053172;28;20025;-65
2023/08/07 03:40:54;;;;;;;31.58;22.88;;;31.40;99.90;;;;;;5052818;28;20036;-65
2023/08/07 03:43:20;;;;;;;81.13;73.57;;;31.50;99.90;;;;;;5053038;28;20506;-65
2023/08/07 03:45:47;;;;;;;37.95;26.02;;;31.60;99.90;;;;;;5053131;28;20029;-65
2023/08/07 03:48:13;;;;;;;118.72;106.68;;;31.60;99.90;;;;;;5052933;28;20472;-65
2023/08/07 03:50:40;;;;;;;127.60;114.80;;;31.60;99.90;;;;;;5052859;28;20037;-65
2023/08/07 03:53:07;;;;;;;68.90;61.97;;;31.50;99.90;;;;;;5052619;28;20533;-65
2023/08/07 03:55:34;;;;;;;126.45;113.55;;;31.60;99.90;;;;;;5052850;28;20039;-65
2023/08/07 03:58:00;;;;;;;35.03;31.33;;;31.70;99.90;;;;;;5052852;28;20491;-65
2023/08/07 04:00:27;;;;;;;35.25;20.63;;;31.70;99.90;;;;;;5052895;28;20129;-66
2023/08/07 04:02:53;;;;;;;85.07;76.95;;;31.80;99.90;;;;;;5052732;28;20032;-65
2023/08/07 04:05:20;;;;;;;30.27;21.30;;;31.80;99.90;;;;;;5052905;28;20116;-65
2023/08/07 04:07:46;;;;;;;53.22;44.90;;;31.80;99.90;;;;;;5052931;28;20020;-66
2023/08/07 04:10:13;;;;;;;28.60;20.35;;;31.90;99.90;;;;;;5052925;28;20081;-65
2023/08/07 04:12:39;;;;;;;33.97;21.25;;;31.90;99.90;;;;;;5052844;28;20124;-65
2023/08/07 04:15:07;;;;;;;34.92;22.42;;;31.90;99.90;;;;;;5052754;28;20075;-65
2023/08/07 04:17:33;;;;;;;36.42;22.73;;;31.90;99.90;;;;;;5052814;28;20088;-65
2023/08/07 04:20:00;;;;;;;84.88;75.55;;;32.00;99.90;;;;;;5049779;28;20021;-64
2023/08/07 04:22:26;;;;;;;123.18;110.80;;;32.10;99.90;;;;;;5041515;28;20045;-65
2023/08/07 04:24:53;;;;;;;45.03;37.83;;;32.10;99.90;;;;;;5042627;28;20017;-66
2023/08/07 04:27:19;;;;;;;52.22;41.10;;;32.10;99.90;;;;;;5043092;28;20027;-66
2023/08/07 04:29:45;;;;;;;26.20;17.90;;;32.00;99.90;;;;;;5044672;28;20096;-67
2023/08/07 04:32:12;;;;;;;62.72;52.80;;;32.00;99.90;;;;;;5047138;28;20468;-65
2023/08/07 04:34:38;;;;;;;37.05;33.03;;;32.10;99.90;;;;;;5046912;28;20079;-64
2023/08/07 04:37:06;;;;;;;301.98;271.55;;;32.20;99.90;;;;;;5045833;28;20025;-65
2023/08/07 04:39:32;;;;;;;296.05;267.52;;;32.30;99.90;;;;;;5044881;28;20037;-67
2023/08/07 04:41:59;;;;;;;577.28;520.17;;;32.30;99.90;;;;;;5052254;28;20028;-67
2023/08/07 04:44:25;;;;;;;489.90;441.48;;;32.40;99.90;;;;;;5048395;28;20055;-65
2023/08/07 04:46:52;;;;;;;356.42;321.52;;;32.50;99.90;;;;;;5044709;28;20037;-68
2023/08/07 04:49:18;;;;;;;265.35;240.93;;;32.50;99.90;;;;;;5038081;28;20068;-67
2023/08/07 04:51:45;;;;;;;39.47;26.70;;;32.60;99.90;;;;;;5040764;28;20451;-64
2023/08/07 04:54:11;;;;;;;164.10;149.93;;;32.60;99.90;;;;;;5044730;28;20025;-64
2023/08/07 04:56:38;;;;;;;182.90;165.13;;;32.70;99.90;;;;;;5045583;28;20419;-64
2023/08/07 04:59:04;;;;;;;57.45;51.53;;;32.70;99.90;;;;;;5045921;28;20020;-65
2023/08/07 05:01:31;;;;;;;37.08;32.30;;;32.60;99.90;;;;;;5044509;28;20017;-66
2023/08/07 05:03:59;;;;;;;31.73;21.27;;;32.60;99.90;;;;;;5046132;28;20031;-67
2023/08/07 05:06:25;;;;;;;117.93;105.90;;;32.50;99.90;;;;;;5045865;28;20026;-64
2023/08/07 05:08:52;;;;;;;277.75;251.23;;;32.50;99.90;;;;;;5044181;28;20017;-64
2023/08/07 05:11:20;;;;;;;46.50;42.05;;;32.50;99.90;;;;;;5045960;28;20104;-63
2023/08/07 05:13:46;;;;;;;291.63;262.20;;;32.50;99.90;;;;;;5045843;28;20017;-63
2023/08/07 05:16:13;;;;;;;216.50;194.20;;;32.50;99.90;;;;;;5044203;28;20075;-66
2023/08/07 05:18:39;;;;;;;20.73;14.63;;;32.60;99.90;;;;;;5046969;28;20028;-64
2023/08/07 05:21:08;;;;;;;586.95;529.35;;;32.70;99.90;;;;;;5055579;28;20020;-65
2023/08/07 05:23:35;;;;;;;120.60;108.53;;;32.80;99.90;;;;;;5048325;28;20438;-64
2023/08/07 05:26:02;;;;;;;174.75;159.82;;;32.90;99.90;;;;;;5045351;28;20028;-64
2023/08/07 05:28:28;;;;;;;242.57;220.43;;;32.90;99.90;;;;;;5045697;28;20468;-65
2023/08/07 05:30:55;;;;;;;260.15;236.07;;;32.90;99.90;;;;;;5043719;28;20022;-65
2023/08/07 05:33:21;;;;;;;475.23;426.80;;;32.80;99.90;;;;;;5045268;28;20379;-65
2023/08/07 05:35:48;;;;;;;296.52;268.42;;;32.80;99.90;;;;;;5043688;28;20064;-65
2023/08/07 05:38:14;;;;;;;188.18;170.80;;;32.70;99.90;;;;;;5045815;28;20021;-65
2023/08/07 05:40:41;;;;;;;498.42;447.35;;;32.70;99.90;;;;;;5044332;28;20143;-65
2023/08/07 05:43:08;;;;;;;327.58;296.65;;;32.70;99.90;;;;;;5049184;28;20052;-64
2023/08/07 05:45:35;;;;;;;190.77;174.00;;;32.70;99.90;;;;;;5046385;28;20017;-64
2023/08/07 05:48:01;;;;;;;162.20;148.43;;;32.70;99.90;;;;;;5044287;28;20513;-65
2023/08/07 05:50:27;;;;;;;115.30;104.63;;;32.70;99.90;;;;;;5044305;28;20029;-65
2023/08/07 05:52:54;;;;;;;37.25;34.17;;;32.80;99.90;;;;;;5045895;28;20074;-64
2023/08/07 05:55:21;;;;;;;25.17;19.20;;;33.00;99.90;;;;;;5044097;28;20021;-64
2023/08/07 05:57:49;;;;;;;64.47;58.22;;;33.20;99.90;;;;;;5045233;28;20049;-68
2023/08/07 06:00:18;;;;;;;167.73;150.68;;;33.20;99.90;;;;;;5044626;28;20430;-65
2023/08/07 06:02:44;;;;;;;218.55;198.32;;;33.20;99.90;;;;;;5050089;28;20029;-65
2023/08/07 06:05:14;;;;;;;93.95;85.45;;;33.20;99.90;;;;;;5045338;28;20099;-65
2023/08/07 06:07:41;;;;;;;190.70;173.13;;;33.10;99.90;;;;;;5044110;28;20025;-65
2023/08/07 06:10:08;;;;;;;212.32;191.55;;;33.10;99.90;;;;;;5044783;28;20021;-64
2023/08/07 06:12:34;;;;;;;221.55;200.80;;;33.20;99.90;;;;;;5045544;28;20016;-65
2023/08/07 06:15:01;;;;;;;227.73;206.35;;;33.20;99.90;;;;;;5044153;28;20018;-63
2023/08/07 06:17:27;;;;;;;370.55;333.05;;;33.30;99.90;;;;;;5044383;28;20021;-64
2023/08/07 06:19:54;;;;;;;222.00;200.30;;;33.40;99.90;;;;;;5045290;28;20029;-64
2023/08/07 06:22:20;;;;;;;111.63;98.25;;;33.30;99.90;;;;;;5049316;28;20118;-63
2023/08/07 06:24:47;;;;;;;47.08;42.53;;;33.30;99.90;;;;;;5043965;28;20032;-63
2023/08/07 06:27:13;;;;;;;27.02;24.20;;;33.20;99.90;;;;;;5050740;28;20112;-66
2023/08/07 06:29:40;;;;;;;31.48;28.45;;;33.20;99.90;;;;;;5054721;28;20027;-64
2023/08/07 06:32:07;;;;;;;33.65;30.23;;;33.10;99.90;;;;;;5055106;28;20475;-66
2023/08/07 06:34:35;;;;;;;29.98;27.15;;;33.10;99.90;;;;;;5047090;28;20484;-65
2023/08/07 06:37:05;;;;;;;19.05;12.00;;;33.10;99.90;;;;;;5033889;28;20022;-66
2023/08/07 06:39:31;;;;;;;17.05;11.23;;;33.10;99.90;;;;;;5035729;28;20102;-64
2023/08/07 06:42:00;;;;;;;20.25;10.38;;;33.10;99.90;;;;;;5037001;28;20022;-65
2023/08/07 06:44:26;;;;;;;24.33;11.65;;;33.10;99.90;;;;;;5034662;28;20029;-64
2023/08/07 06:46:53;;;;;;;19.45;10.50;;;33.00;99.90;;;;;;5034708;28;20426;-64
2023/08/07 06:49:19;;;;;;;17.27;10.10;;;32.90;99.90;;;;;;5033649;28;20089;-66
2023/08/07 06:51:46;;;;;;;18.00;10.65;;;32.70;99.90;;;;;;5033616;28;20018;-66
2023/08/07 06:54:12;;;;;;;20.13;11.40;;;32.60;99.90;;;;;;5037015;28;20424;-67
2023/08/07 06:56:42;;;;;;;20.83;11.95;;;32.60;99.90;;;;;;5051511;28;20041;-66
2023/08/07 06:59:08;;;;;;;130.27;119.38;;;32.60;99.90;;;;;;5034313;28;20017;-64
2023/08/07 07:01:36;;;;;;;35.75;32.20;;;32.60;99.90;;;;;;5042507;28;20028;-65
2023/08/07 07:04:02;;;;;;;60.95;55.42;;;32.60;99.90;;;;;;5054309;28;20017;-69
2023/08/07 07:06:30;;;;;;;267.45;242.90;;;32.60;99.90;;;;;;5054134;28;20017;-65
2023/08/07 07:08:56;;;;;;;151.90;137.55;;;32.50;99.90;;;;;;5054367;28;20017;-65
2023/08/07 07:11:24;;;;;;;340.80;307.55;;;32.50;99.90;;;;;;5053939;28;20025;-66
2023/08/07 07:13:51;;;;;;;18.90;10.32;;;32.50;99.90;;;;;;5053715;28;20242;-66
2023/08/07 07:16:21;;;;;;;33.13;28.88;;;32.50;99.90;;;;;;5053780;28;20033;-66
2023/08/07 07:18:51;;;;;;;32.00;28.67;;;32.50;99.90;;;;;;5053197;28;20033;-64
2023/08/07 07:21:18;;;;;;;21.33;12.45;;;32.50;99.90;;;;;;5053230;28;20028;-65
2023/08/07 07:23:44;;;;;;;25.05;11.32;;;32.50;99.90;;;;;;5053336;28;20091;-66
2023/08/07 07:26:11;;;;;;;17.50;8.20;;;32.50;99.90;;;;;;5044748;28;20265;-67
2023/08/07 07:28:37;;;;;;;10.55;6.07;;;32.50;99.90;;;;;;5042361;28;20029;-69
2023/08/07 07:31:04;;;;;;;10.48;5.07;;;32.30;99.90;;;;;;5043328;28;20473;-68
2023/08/07 07:33:31;;;;;;;9.35;5.22;;;32.20;99.90;;;;;;5041414;28;20026;-67
2023/08/07 07:35:58;;;;;;;9.95;5.68;;;32.00;99.90;;;;;;5042337;28;20028;-66
2023/08/07 07:38:26;;;;;;;9.82;5.43;;;32.00;99.90;;;;;;5043708;28;20472;-67
2023/08/07 07:40:56;;;;;;;14.73;6.70;;;31.80;99.90;;;;;;5047342;28;20458;-65
2023/08/07 07:43:23;;;;;;;16.75;8.63;;;31.70;99.90;;;;;;5042370;28;20435;-66
2023/08/07 07:45:50;;;;;;;24.65;12.30;;;31.70;99.90;;;;;;5033226;28;20033;-66
2023/08/07 07:48:16;;;;;;;25.40;10.88;;;31.60;99.90;;;;;;5033108;28;20092;-64
2023/08/07 07:50:43;;;;;;;18.88;9.60;;;31.30;99.90;;;;;;5033216;28;20075;-65
2023/08/07 07:53:09;;;;;;;20.05;10.13;;;31.00;99.90;;;;;;5033046;28;20531;-65
2023/08/07 07:55:37;;;;;;;18.40;9.30;;;30.60;99.90;;;;;;5032886;28;20021;-65
2023/08/07 07:58:04;;;;;;;14.73;8.05;;;30.50;99.90;;;;;;5032689;28;20088;-64
2023/08/07 08:00:30;;;;;;;13.07;7.90;;;30.40;99.90;;;;;;5033052;28;20025;-64
2023/08/07 08:02:57;;;;;;;21.33;10.88;;;30.40;99.90;;;;;;5042765;28;20470;-65
2023/08/07 08:05:23;;;;;;;30.13;15.10;;;30.50;99.90;;;;;;5057094;28;20463;-65
2023/08/07 08:07:50;;;;;;;27.15;13.27;;;30.60;99.90;;;;;;5056832;28;20107;-64
2023/08/07 08:10:16;;;;;;;23.25;12.93;;;30.50;99.90;;;;;;5051721;28;20029;-65
2023/08/07 08:12:43;;;;;;;23.60;10.13;;;30.40;99.90;;;;;;5044276;28;20112;-65
2023/08/07 08:15:10;;;;;;;17.65;10.77;;;30.50;99.90;;;;;;5043152;28;20531;-65
2023/08/07 08:17:36;;;;;;;18.77;8.15;;;30.60;99.90;;;;;;5056755;28;20052;-65
2023/08/07 08:20:03;;;;;;;41.88;22.60;;;30.70;99.90;;;;;;5056769;28;20104;-64
2023/08/07 08:22:30;;;;;;;36.38;19.40;;;30.80;99.90;;;;;;5057081;28;20159;-64
2023/08/07 08:24:56;;;;;;;25.58;16.80;;;30.90;99.90;;;;;;5055862;28;20074;-65
2023/08/07 08:27:23;;;;;;;28.15;17.65;;;31.10;99.90;;;;;;5049198;28;20022;-66
2023/08/07 08:29:49;;;;;;;24.60;15.23;;;31.20;99.90;;;;;;5036552;28;20394;-66
2023/08/07 08:32:15;;;;;;;42.85;26.65;;;31.30;99.90;;;;;;5036793;28;20119;-67
2023/08/07 08:34:42;;;;;;;67.30;41.92;;;31.40;99.90;;;;;;5039494;28;20025;-64
2023/08/07 08:37:10;;;;;;;59.38;41.40;;;31.50;99.90;;;;;;5056386;28;20370;-65
2023/08/07 08:39:37;;;;;;;97.13;64.07;;;31.50;99.90;;;;;;5056076;28;20163;-69
2023/08/07 08:42:04;;;;;;;62.20;40.67;;;31.60;99.90;;;;;;5056110;28;20067;-66
2023/08/07 08:44:37;;;;;;;42.70;27.02;;;31.60;99.90;;;;;;5056100;28;20025;-66
2023/08/07 08:47:04;;;;;;;49.33;31.02;;;31.60;99.90;;;;;;5055956;28;20047;-66
2023/08/07 08:49:36;;;;;;;81.05;50.40;;;31.60;99.90;;;;;;5055892;28;20033;-66
2023/08/07 08:52:04;;;;;;;27.75;14.68;;;31.70;99.90;;;;;;5054597;28;20382;-66
2023/08/07 08:54:31;;;;;;;24.40;14.95;;;31.70;99.90;;;;;;5055632;28;20057;-68
2023/08/07 08:56:59;;;;;;;20.58;11.45;;;31.70;99.90;;;;;;5049458;28;20048;-65
2023/08/07 08:59:26;;;;;;;14.50;9.23;;;31.80;99.90;;;;;;5041171;28;20033;-65
2023/08/07 09:01:53;;;;;;;14.05;9.45;;;31.80;99.90;;;;;;5035762;28;20033;-66
2023/08/07 09:04:19;;;;;;;15.70;8.65;;;31.90;99.90;;;;;;5035668;28;20024;-65
2023/08/07 09:06:47;;;;;;;35.40;22.42;;;31.80;99.90;;;;;;5035763;28;20053;-65
2023/08/07 09:09:15;;;;;;;103.43;70.20;;;31.80;99.90;;;;;;5035455;28;20036;-66
2023/08/07 09:11:45;;;;;;;108.70;74.47;;;31.80;99.90;;;;;;5036157;28;20095;-65
2023/08/07 09:14:15;;;;;;;72.75;55.90;;;31.80;99.90;;;;;;5035001;28;20022;-67
2023/08/07 09:16:42;;;;;;;24.45;14.80;;;31.90;99.90;;;;;;5035531;28;20089;-68
2023/08/07 09:19:09;;;;;;;30.05;19.83;;;31.90;99.90;;;;;;5035987;28;20053;-66
2023/08/07 09:21:35;;;;;;;22.95;11.80;;;32.00;99.90;;;;;;5035653;28;20443;-67
2023/08/07 09:24:02;;;;;;;29.15;15.40;;;31.90;99.90;;;;;;5035560;28;20021;-67
2023/08/07 09:26:32;;;;;;;29.35;17.77;;;31.90;99.90;;;;;;5037902;28;20428;-67
2023/08/07 09:28:59;;;;;;;41.55;17.25;;;31.90;99.90;;;;;;5035354;28;20022;-66
2023/08/07 09:31:26;;;;;;;33.03;19.58;;;31.90;99.90;;;;;;5035311;28;20025;-67
2023/08/07 09:33:53;;;;;;;79.38;43.65;;;32.00;99.90;;;;;;5043554;28;20026;-64
2023/08/07 09:36:19;;;;;;;68.82;36.72;;;32.00;99.90;;;;;;5052656;28;20573;-64
2023/08/07 09:38:55;;;;;;;214.75;128.25;;;32.00;99.90;;;;;;5055620;28;20021;-64
2023/08/07 09:41:22;;;;;;;171.35;101.75;;;32.00;99.90;;;;;;5055868;28;20438;-64
2023/08/07 09:43:48;;;;;;;78.57;39.05;;;32.00;99.90;;;;;;5055396;28;20044;-64
2023/08/07 09:46:17;;;;;;;36.45;20.58;;;32.00;99.90;;;;;;5043399;28;20024;-64
2023/08/07 09:48:44;;;;;;;38.80;18.63;;;32.00;99.90;;;;;;5039448;28;20022;-65
2023/08/07 09:51:11;;;;;;;24.65;13.90;;;32.00;99.90;;;;;;5055474;28;20025;-63
2023/08/07 09:53:38;;;;;;;53.58;25.00;;;32.10;99.90;;;;;;5048326;28;20131;-66
2023/08/07 09:56:06;;;;;;;83.50;37.38;;;32.00;99.90;;;;;;5044345;28;20042;-65
2023/08/07 09:58:32;;;;;;;86.57;39.33;;;32.10;99.90;;;;;;5035667;28;20372;-64
2023/08/07 10:01:03;;;;;;;71.95;36.13;;;32.20;99.90;;;;;;5035009;28;20391;-65
2023/08/07 10:03:30;;;;;;;71.45;36.15;;;32.20;99.90;;;;;;5035179;28;20029;-65
2023/08/07 10:05:57;;;;;;;81.65;41.88;;;32.10;99.90;;;;;;5035256;28;20025;-64
2023/08/07 10:08:24;;;;;;;98.07;49.08;;;32.10;99.90;;;;;;5035242;28;20061;-66
2023/08/07 10:10:51;;;;;;;107.13;58.03;;;32.10;99.90;;;;;;5035114;28;20034;-64
2023/08/07 10:13:19;;;;;;;103.20;55.58;;;32.10;99.90;;;;;;5037651;28;20110;-67
2023/08/07 10:15:47;;;;;;;99.55;53.30;;;32.00;99.90;;;;;;5035141;28;20036;-65
2023/08/07 10:18:14;;;;;;;94.00;54.35;;;32.00;99.90;;;;;;5045344;28;20274;-66
2023/08/07 10:20:43;;;;;;;110.50;69.47;;;32.00;99.90;;;;;;5035549;28;20193;-66
2023/08/07 10:23:11;;;;;;;87.63;48.83;;;32.00;99.90;;;;;;5035120;28;20041;-65
2023/08/07 10:25:42;;;;;;;99.60;54.25;;;32.00;99.90;;;;;;5043604;28;20083;-64
2023/08/07 10:28:12;;;;;;;277.42;188.48;;;31.90;99.90;;;;;;5039284;28;20462;-65
2023/08/07 10:30:41;;;;;;;153.38;97.55;;;31.90;99.90;;;;;;5047686;28;20029;-65
2023/08/07 10:33:10;;;;;;;137.10;77.30;;;31.90;99.90;;;;;;5040338;28;20511;-65
2023/08/07 10:35:37;;;;;;;131.18;74.22;;;31.90;99.90;;;;;;5034476;28;20523;-65
2023/08/07 10:38:12;;;;;;;153.35;84.10;;;31.90;99.90;;;;;;5035700;28;20027;-66
2023/08/07 10:41:00;;;;;;;134.18;76.70;;;31.90;99.90;;;;;;5043345;28;20336;-65
2023/08/07 10:43:28;;;;;;;115.07;59.83;;;31.90;99.90;;;;;;5034192;28;20094;-62
2023/08/07 10:46:15;;;;;;;156.93;93.70;;;31.80;99.90;;;;;;5034459;28;20026;-67
2023/08/07 10:48:47;;;;;;;121.80;64.40;;;31.80;99.90;;;;;;5034338;28;20059;-65
2023/08/07 10:51:15;;;;;;;120.07;68.25;;;31.80;99.90;;;;;;5034290;28;20447;-66
2023/08/07 10:53:46;;;;;;;207.23;127.13;;;31.80;99.90;;;;;;5034459;28;20040;-65
2023/08/07 10:56:37;;;;;;;168.27;98.27;;;31.80;99.90;;;;;;5042376;28;20033;-66
2023/08/07 10:59:13;;;;;;;68.20;37.17;;;31.80;99.90;;;;;;5043693;28;20022;-64
2023/08/07 11:01:39;;;;;;;38.20;20.33;;;31.70;99.90;;;;;;5043277;28;20091;-66
2023/08/07 11:04:08;;;;;;;38.38;20.02;;;31.70;99.90;;;;;;5043974;28;20027;-64
2023/08/07 11:06:36;;;;;;;54.67;30.75;;;31.60;99.90;;;;;;5037402;28;20074;-68
2023/08/07 11:09:06;;;;;;;39.25;21.13;;;31.60;99.90;;;;;;5038727;28;20025;-65
2023/08/07 11:11:44;;;;;;;41.47;22.45;;;31.50;99.90;;;;;;5037832;28;20033;-64
2023/08/07 11:14:14;;;;;;;83.28;49.83;;;31.50;99.90;;;;;;5037010;28;20398;-65
2023/08/07 11:16:41;;;;;;;52.30;24.15;;;31.50;99.90;;;;;;5046377;28;20088;-65
2023/08/07 11:19:09;;;;;;;55.25;26.88;;;31.50;99.90;;;;;;5036024;28;20032;-66
2023/08/07 11:21:37;;;;;;;62.53;28.25;;;31.40;99.90;;;;;;5041192;28;20029;-66
2023/08/07 11:24:04;;;;;;;64.45;28.38;;;31.40;99.90;;;;;;5044109;28;20044;-64
2023/08/07 11:26:30;;;;;;;45.70;23.08;;;31.40;99.90;;;;;;5043938;28;20476;-65
2023/08/07 11:28:57;;;;;;;51.22;26.20;;;31.40;99.90;;;;;;5043466;28;20097;-65
2023/08/07 11:31:25;;;;;;;46.78;23.33;;;31.40;99.90;;;;;;5042006;28;20081;-64
2023/08/07 11:33:54;;;;;;;45.10;22.40;;;31.30;99.90;;;;;;5042761;28;20037;-65
2023/08/07 11:36:22;;;;;;;43.70;26.70;;;31.30;99.90;;;;;;5040755;28;20026;-64
2023/08/07 11:38:49;;;;;;;35.15;18.63;;;31.30;99.90;;;;;;5041491;28;20087;-65
2023/08/07 11:41:17;;;;;;;41.00;18.73;;;31.30;99.90;;;;;;5041950;28;20021;-64
2023/08/07 11:43:44;;;;;;;50.05;24.50;;;31.30;99.90;;;;;;5041940;28;20043;-63
2023/08/07 11:46:12;;;;;;;50.70;23.23;;;31.30;99.90;;;;;;5040320;28;20116;-64
2023/08/07 11:48:40;;;;;;;47.30;22.35;;;31.20;99.90;;;;;;5040863;28;20446;-63
2023/08/07 11:51:07;;;;;;;43.67;19.35;;;31.30;99.90;;;;;;5042087;28;20037;-65
2023/08/07 11:53:37;;;;;;;31.48;16.52;;;31.10;99.90;;;;;;5040327;28;20061;-65
2023/08/07 11:56:14;;;;;;;33.05;16.67;;;31.10;99.90;;;;;;5041110;28;20041;-67
2023/08/07 11:58:45;;;;;;;31.17;14.50;;;31.00;99.90;;;;;;5041533;28;20487;-65
2023/08/07 12:01:17;;;;;;;31.83;16.38;;;31.00;99.90;;;;;;5040464;28;20033;-64
2023/08/07 12:03:51;;;;;;;26.63;12.32;;;31.00;99.90;;;;;;5041255;28;20129;-65
2023/08/07 12:06:18;;;;;;;36.55;16.98;;;30.90;99.90;;;;;;5040971;28;20511;-66
2023/08/07 12:08:44;;;;;;;29.55;13.93;;;30.90;99.90;;;;;;5045056;28;20029;-66
2023/08/07 12:11:13;;;;;;;23.95;13.45;;;30.80;99.90;;;;;;5047845;28;20075;-67
2023/08/07 12:13:42;;;;;;;22.67;12.13;;;30.80;99.90;;;;;;5044367;28;20425;-66
2023/08/07 12:16:09;;;;;;;27.63;13.52;;;30.70;99.90;;;;;;5042278;28;20548;-65
2023/08/07 12:18:38;;;;;;;31.55;14.85;;;30.70;99.90;;;;;;5040610;28;20079;-66
2023/08/07 12:21:07;;;;;;;33.42;14.50;;;30.60;99.90;;;;;;5041331;28;20048;-67
2023/08/07 12:23:35;;;;;;;26.95;14.48;;;30.70;99.90;;;;;;5041857;28;20051;-65